Flight Track Log - Related Links

Times and Time Zones

All times are in EST time to prevent confusion due to time zone crossing. See the JBU1403 flight status page for this flight to view local times or setup timezone preferences in your user account.

Time Position Orientation Groundspeed Altitude Reporting Facility
EST Latitude Longitude Course Direction KTS MPH feet Rate Location/Type
Thu 06:03:00 AM 40.4407 -73.4288 128° Southeast  Level FlightAware Approximate
Thu 06:03:58 AM 40.6027 -73.5149 144° Southeast 283 326 7,800  Level FlightAware ADS-B (KSNC)
Thu 06:04:00 AM 40.3636 -73.3036 131° Southeast  Level FlightAware Approximate
Thu 06:04:20 AM 40.5794 -73.4920 143° Southeast 295 339 8,500  Level FlightAware ADS-B (KSNC)
Thu 06:04:53 AM 40.5403 -73.4533 143° Southeast 319 367 9,600 1,397 Climbing FlightAware ADS-B (KSNC)
Thu 06:06:16 AM 40.4407 -73.3396 138° Southeast 389 448 11,200 1,327 Climbing FlightAware ADS-B (KSNC)
Thu 06:06:46 AM 40.3970 -73.2877 138° Southeast 401 461 12,100 1,969 Climbing FlightAware ADS-B (KSNC)
Thu 06:07:20 AM 40.3496 -73.2317 138° Southeast 411 473 13,300 2,063 Climbing FlightAware ADS-B (KSNC)
Thu 06:07:50 AM 40.3064 -73.1808 138° Southeast 418 481 14,300 1,816 Climbing FlightAware ADS-B (KSNC)
Thu 06:08:36 AM 40.2405 -73.1035 138° Southeast 433 498 15,600 1,813 Climbing FlightAware ADS-B (KSNC)
Thu 06:09:26 AM 40.1655 -73.0154 138° Southeast 440 506 17,200 1,880 Climbing FlightAware ADS-B (KSNC)
Thu 06:09:59 AM 40.1137 -72.9551 138° Southeast 446 513 18,200 1,594 Climbing FlightAware ADS-B (KSNC)
Thu 06:10:30 AM 40.0671 -72.9008 138° Southeast 455 524 18,900 1,524 Climbing FlightAware ADS-B (KSNC)
Thu 06:11:02 AM 40.0157 -72.8409 138° Southeast 460 529 19,800 1,606 Climbing FlightAware ADS-B (KSNC)
Thu 06:11:41 AM 39.9527 -72.7675 138° Southeast 466 536 20,800 1,437 Climbing FlightAware ADS-B (KSNC)
Thu 06:12:13 AM 39.9016 -72.7082 138° Southeast 474 545 21,500 1,183 Climbing FlightAware ADS-B (KSNC)
Thu 06:12:52 AM 39.8422 -72.6396 138° Southeast 483 556 22,200 1,167 Climbing FlightAware ADS-B (KSNC)
Thu 06:13:25 AM 39.7864 -72.5752 138° Southeast 489 563 22,900 1,183 Climbing FlightAware ADS-B (KSNC)
Thu 06:14:03 AM 39.7151 -72.4930 138° Southeast 499 574 23,600 1,200 Climbing FlightAware ADS-B (KSNC)
Thu 06:14:35 AM 39.6599 -72.4296 138° Southeast 500 575 24,300 1,247 Climbing FlightAware ADS-B (KSNC)
Thu 06:15:20 AM 39.5812 -72.3395 139° Southeast 504 580 25,200 1,059 Climbing FlightAware ADS-B (KSNC)
Thu 06:17:59 AM 39.2992 -72.0187 139° Southeast 515 593 27,900 1,033 Climbing FlightAware ADS-B (KWWD)
Thu 06:18:55 AM 39.2142 -71.9228 139° Southeast 507 583 28,900 1,034 Climbing New York Center
Thu 06:19:55 AM 39.1069 -71.8033 139° Southeast 507 583 29,900 1,150 Climbing New York Center
Thu 06:20:55 AM 39.0039 -71.6869 139° Southeast 507 583 31,200 1,150 Climbing New York Center
Thu 06:21:55 AM 38.9006 -71.5681 138° Southeast 501 577 32,200 750 Climbing New York Center
Thu 06:22:55 AM 38.7947 -71.4550 140° Southeast 501 577 32,700 600 Climbing New York Center
Thu 06:23:55 AM 38.6892 -71.3369 139° Southeast 506 582 33,400 600 Climbing New York Center
Thu 06:24:55 AM 38.5833 -71.2192 139° Southeast 506 582 33,900 550 Climbing New York Center
Thu 06:25:55 AM 38.4775 -71.1017 139° Southeast 506 582 34,500 550 Climbing New York Center
Thu 06:26:55 AM 38.3694 -70.9844 140° Southeast 506 582 35,000 250 Climbing New York Center
Thu 06:27:55 AM 38.2611 -70.8678 140° Southeast 506 582 35,000  Level New York Center
Thu 06:28:55 AM 38.1547 -70.7567 141° Southeast 506 582 35,000  Level New York Center
Thu 06:29:55 AM 38.0525 -70.6300 136° Southeast 506 582 35,000  Level New York Center
Thu 06:30:55 AM 37.9336 -70.5406 149° Southeast 501 577 35,000  Level New York Center
Thu 06:31:55 AM 37.8292 -70.4700 152° Southeast 489 563 35,000  Level New York Center
Thu 06:32:26 AM 38.0000 -70.5833 153° Southeast 460 529 35,000  Level New York Oceanic (ODAPS)
Thu 06:46:48 AM 36.1667 -69.4500 168° South 448 516 35,000  Level New York Oceanic (ODAPS)
Thu 06:47:00 AM 36.0446 -69.4170 168° South 460 529 35,000  Level FlightAware Transoceanic
Thu 06:48:00 AM 35.9225 -69.3842 168° South 460 529 35,000  Level FlightAware Transoceanic
Thu 06:49:00 AM 35.8004 -69.3514 168° South 460 529 35,000  Level FlightAware Transoceanic
Thu 06:50:00 AM 35.6783 -69.3187 168° South 460 529 35,000  Level FlightAware Transoceanic
Thu 06:51:00 AM 35.5563 -69.2862 168° South 460 529 35,000  Level FlightAware Transoceanic
Thu 06:52:00 AM 35.4341 -69.2537 168° South 460 529 35,000  Level FlightAware Transoceanic
Thu 06:53:00 AM 35.3120 -69.2213 168° South 448 516 35,000  Level FlightAware Transoceanic
Thu 06:54:00 AM 35.1899 -69.1891 168° South 448 516 35,000  Level FlightAware Transoceanic
Thu 06:55:00 AM 35.0677 -69.1569 168° South 448 516 35,000  Level FlightAware Transoceanic
Thu 06:56:00 AM 34.9456 -69.1248 168° South 448 516 35,000  Level FlightAware Transoceanic
Thu 06:57:00 AM 34.8235 -69.0928 168° South 448 516 35,000  Level FlightAware Transoceanic
Thu 06:58:00 AM 34.7013 -69.0609 168° South 448 516 35,000  Level FlightAware Transoceanic
Thu 06:59:00 AM 34.5791 -69.0291 168° South 448 516 35,000  Level FlightAware Transoceanic
Thu 07:00:00 AM 34.4570 -68.9974 168° South 448 516 35,000  Level FlightAware Transoceanic
Thu 07:01:00 AM 34.3348 -68.9658 168° South 448 516 35,000  Level FlightAware Transoceanic
Thu 07:02:00 AM 34.2126 -68.9343 168° South 448 516 35,000  Level FlightAware Transoceanic
Thu 07:03:00 AM 34.0904 -68.9029 168° South 448 516 35,000  Level FlightAware Transoceanic
Thu 07:04:00 AM 33.9682 -68.8716 168° South 448 516 35,000  Level FlightAware Transoceanic
Thu 07:05:00 AM 33.8459 -68.8403 168° South 448 516 35,000  Level FlightAware Transoceanic
Thu 07:06:00 AM 33.7237 -68.8092 168° South 448 516 35,000  Level FlightAware Transoceanic
Thu 07:07:00 AM 33.6015 -68.7781 168° South 448 516 35,000  Level FlightAware Transoceanic
Thu 07:08:00 AM 33.4792 -68.7471 168° South 448 516 35,000  Level FlightAware Transoceanic
Thu 07:09:00 AM 33.3570 -68.7162 168° South 448 516 35,000  Level FlightAware Transoceanic
Thu 07:10:00 AM 33.2347 -68.6854 168° South 448 516 35,000  Level FlightAware Transoceanic
Thu 07:11:00 AM 33.1125 -68.6547 168° South 448 516 35,000  Level FlightAware Transoceanic
Thu 07:12:00 AM 32.9902 -68.6241 168° South 448 516 35,000  Level FlightAware Transoceanic
Thu 07:13:00 AM 32.8679 -68.5935 168° South 448 516 35,000  Level FlightAware Transoceanic
Thu 07:14:00 AM 32.7456 -68.5631 168° South 448 516 35,000  Level FlightAware Transoceanic
Thu 07:15:00 AM 32.6233 -68.5327 168° South 448 516 35,000  Level FlightAware Transoceanic
Thu 07:16:00 AM 32.5010 -68.5024 168° South 448 516 35,000  Level FlightAware Transoceanic
Thu 07:17:00 AM 32.3787 -68.4722 168° South 448 516 35,000  Level FlightAware Transoceanic
Thu 07:18:00 AM 32.2564 -68.4420 168° South 448 516 35,000  Level FlightAware Transoceanic
Thu 07:19:00 AM 32.1341 -68.4120 168° South 448 516 35,000  Level FlightAware Transoceanic
Thu 07:20:00 AM 32.0117 -68.3820 168° South 448 516 35,000  Level FlightAware Transoceanic
Thu 07:21:00 AM 31.8894 -68.3521 168° South 448 516 35,000  Level FlightAware Transoceanic
Thu 07:22:00 AM 31.7671 -68.3223 168° South 448 516 35,000  Level FlightAware Transoceanic
Thu 07:23:00 AM 31.6447 -68.2926 168° South 448 516 35,000  Level FlightAware Transoceanic
Thu 07:24:00 AM 31.5224 -68.2629 168° South 448 516 35,000  Level FlightAware Transoceanic
Thu 07:25:00 AM 31.4000 -68.2333 168° South 448 516 35,000  Level FlightAware Transoceanic
Thu 07:26:00 AM 31.2754 -68.2034 168° South 448 516 35,000  Level FlightAware Transoceanic
Thu 07:27:00 AM 31.1509 -68.1735 168° South 448 516 35,000  Level FlightAware Transoceanic
Thu 07:28:00 AM 31.0263 -68.1437 168° South 448 516 35,000  Level FlightAware Transoceanic
Thu 07:29:00 AM 30.9017 -68.1140 168° South 448 516 35,000  Level FlightAware Transoceanic
Thu 07:30:00 AM 30.7771 -68.0843 168° South 448 516 35,000  Level FlightAware Transoceanic
Thu 07:31:00 AM 30.6526 -68.0548 168° South 448 516 35,000  Level FlightAware Transoceanic
Thu 07:32:00 AM 30.5280 -68.0253 168° South 448 516 35,000  Level FlightAware Transoceanic
Thu 07:33:00 AM 30.4034 -67.9959 169° South 448 516 35,000  Level FlightAware Transoceanic
Thu 07:34:00 AM 30.2787 -67.9665 169° South 448 516 35,000  Level FlightAware Transoceanic
Thu 07:35:00 AM 30.1541 -67.9373 169° South 448 516 35,000  Level FlightAware Transoceanic
Thu 07:36:00 AM 30.0295 -67.9081 169° South 448 516 35,000  Level FlightAware Transoceanic
Thu 07:37:00 AM 29.9049 -67.8790 169° South 448 516 35,000  Level FlightAware Transoceanic
Thu 07:38:00 AM 29.7802 -67.8499 169° South 448 516 35,000  Level FlightAware Transoceanic
Thu 07:39:00 AM 29.6556 -67.8209 169° South 448 516 35,000  Level FlightAware Transoceanic
Thu 07:40:00 AM 29.5309 -67.7920 169° South 448 516 35,000  Level FlightAware Transoceanic
Thu 07:41:00 AM 29.4063 -67.7632 169° South 448 516 35,000  Level FlightAware Transoceanic
Thu 07:42:00 AM 29.2816 -67.7344 169° South 448 516 35,000  Level FlightAware Transoceanic
Thu 07:43:00 AM 29.1570 -67.7057 169° South 448 516 35,000  Level FlightAware Transoceanic
Thu 07:44:00 AM 29.0323 -67.6771 169° South 448 516 35,000  Level FlightAware Transoceanic
Thu 07:45:00 AM 28.9076 -67.6486 169° South 448 516 35,000  Level FlightAware Transoceanic
Thu 07:46:00 AM 28.7829 -67.6201 169° South 448 516 35,000  Level FlightAware Transoceanic
Thu 07:47:00 AM 28.6582 -67.5917 169° South 448 516 35,000  Level FlightAware Transoceanic
Thu 07:48:00 AM 28.5335 -67.5633 169° South 448 516 35,000  Level FlightAware Transoceanic
Thu 07:49:00 AM 28.4088 -67.5351 169° South 448 516 35,000  Level FlightAware Transoceanic
Thu 07:50:00 AM 28.2841 -67.5068 169° South 448 516 35,000  Level FlightAware Transoceanic
Thu 07:51:00 AM 28.1594 -67.4787 169° South 448 516 35,000  Level FlightAware Transoceanic
Thu 07:52:00 AM 28.0347 -67.4506 169° South 448 516 35,000  Level FlightAware Transoceanic
Thu 07:53:00 AM 27.9100 -67.4226 169° South 448 516 35,000  Level FlightAware Transoceanic
Thu 07:54:00 AM 27.7852 -67.3947 169° South 448 516 35,000  Level FlightAware Transoceanic
Thu 07:55:00 AM 27.6605 -67.3668 169° South 448 516 35,000  Level FlightAware Transoceanic
Thu 07:56:00 AM 27.5357 -67.3389 169° South 448 516 35,000  Level FlightAware Transoceanic
Thu 07:57:00 AM 27.4110 -67.3112 169° South 448 516 35,000  Level FlightAware Transoceanic
Thu 07:58:00 AM 27.2862 -67.2835 169° South 448 516 35,000  Level FlightAware Transoceanic
Thu 07:59:00 AM 27.1615 -67.2558 169° South 448 516 35,000  Level FlightAware Transoceanic
Thu 08:00:00 AM 27.0367 -67.2283 169° South 448 516 35,000  Level FlightAware Transoceanic
Thu 08:01:00 AM 26.9119 -67.2008 169° South 448 516 35,000  Level FlightAware Transoceanic
Thu 08:01:31 AM 27.0833 -67.2500 169° South 460 529 35,000  Level New York Oceanic (ODAPS)
Thu 08:35:16 AM 22.9167 -66.3500 169° South 407 468 35,000  Level New York Oceanic (ODAPS)
Thu 08:37:01 AM 22.4000 -66.2500 169° South 540 621 35,000  Level San Juan Center
Thu 08:38:00 AM 22.2857 -66.2188 169° South 460 529 35,000  Level FlightAware Transoceanic
Thu 08:38:01 AM 22.2667 -66.2167 167° South 460 529 35,000  Level San Juan Center
Thu 08:39:00 AM 22.1595 -66.1927 169° South 460 529 35,000  Level FlightAware Transoceanic
Thu 08:39:01 AM 22.1667 -66.2000 171° South 490 564 35,000  Level San Juan Center
Thu 08:40:00 AM 22.0328 -66.1861 177° South  Level Estimated
Thu 08:40:02 AM 22.0333 -66.1667 167° South 460 529 35,000  Level San Juan Center
Thu 08:41:00 AM 21.8917 -66.1374 169° South 407 468 35,000  Level FlightAware Transoceanic
Thu 08:41:02 AM 21.9000 -66.1333 167° South 420 483 35,000  Level San Juan Center
Thu 08:42:00 AM 21.7500 -66.1082 169° South 407 468 35,000  Level FlightAware Transoceanic
Thu 08:42:02 AM 21.7667 -66.1167 173° South 510 587 35,000  Level San Juan Center
Thu 08:43:03 AM 21.6333 -66.1333 187° South 460 529 35,000  Level San Juan Center
Thu 08:44:03 AM 21.5333 -66.1500 189° South 450 518 35,000  Level San Juan Center
Thu 08:45:04 AM 21.3833 -66.1500 180° South 460 529 35,000  Level San Juan Center
Thu 08:46:04 AM 21.2667 -66.1667 188° South 460 529 35,000  Level San Juan Center
Thu 08:47:15 AM 21.1000 -66.1833 185° South 450 518 35,000  Level San Juan Center
Thu 08:48:15 AM 20.9667 -66.2000 187° South 450 518 35,000  Level San Juan Center
Thu 08:49:15 AM 20.8500 -66.2000 180° South 450 518 35,000  Level San Juan Center
Thu 08:50:16 AM 20.7333 -66.2000 180° South 450 518 35,000 -645 Level San Juan Center
Thu 08:51:16 AM 20.6000 -66.2167 187° South 450 518 33,700 -1,785 Descending San Juan Center
Thu 08:52:17 AM 20.4833 -66.2333 188° South 450 518 31,400 -2,331 Descending San Juan Center
Thu 08:53:17 AM 20.3500 -66.2333 180° South 470 541 29,000 -2,500 Descending San Juan Center
Thu 08:54:17 AM 20.2167 -66.2500 187° South 480 552 26,400 -2,529 Descending San Juan Center
Thu 08:55:18 AM 20.0833 -66.2500 180° South 480 552 23,900 -2,479 Descending San Juan Center
Thu 08:56:18 AM 19.9500 -66.2667 187° South 460 529 21,400 -2,400 Descending San Juan Center
Thu 08:57:18 AM 19.8333 -66.2833 188° South 440 506 19,100 -1,835 Descending San Juan Center
Thu 08:58:19 AM 19.7167 -66.2833 180° South 410 472 17,700 -1,438 Descending San Juan Center
Thu 08:59:19 AM 19.6000 -66.3000 188° South 400 460 16,200 -1,587 Descending San Juan Center
Thu 09:00:20 AM 19.5000 -66.3000 180° South 390 449 14,500 -1,686 Descending San Juan Center
Thu 09:01:20 AM 19.3833 -66.3167 188° South 370 426 12,800 -1,500 Descending San Juan Center
Thu 09:02:20 AM 19.2833 -66.3167 180° South 370 426 11,500 -893 Descending San Juan Center
Thu 09:03:21 AM 19.1833 -66.3167 180° South 360 414 11,000 -198 Descending San Juan Center
Thu 09:04:21 AM 19.0667 -66.3167 180° South 370 426 11,100 -149 Climbing San Juan Center
Thu 09:05:22 AM 18.9833 -66.2667 150° Southeast 340 391 10,700 -843 Descending San Juan Center
Thu 09:06:22 AM 18.9167 -66.2333 155° Southeast 290 334 9,400 -1,700 Descending San Juan Center
Thu 09:07:22 AM 18.8333 -66.2000 159° South 270 311 7,300 -2,033 Descending San Juan Center
Thu 09:08:23 AM 18.7667 -66.2000 180° South 280 322 5,300 -1,587 Descending San Juan Center
Thu 09:09:23 AM 18.6833 -66.2000 180° South 260 299 4,100 -1,150 Descending San Juan Center
Thu 09:10:23 AM 18.6167 -66.2000 180° South 260 299 3,000 -992 Descending San Juan Center
Thu 09:11:24 AM 18.5333 -66.2000 180° South 250 288 2,100 -545 Descending San Juan Center
Thu 09:12:24 AM 18.4833 -66.1833 162° South 190 219 1,900 -200 Descending San Juan Center
Thu 09:13:24 AM 18.4500 -66.1667 155° Southeast 160 184 1,700 -50 Descending San Juan Center
Thu 09:14:25 AM 18.4333 -66.1167 109° East 160 184 1,800 -149 Climbing San Juan Center
Thu 09:15:25 AM 18.4333 -66.0833 90° East 150 173 1,400 -600 Descending San Juan Center
Thu 09:16:25 AM 18.4333 -66.0333 90° East 130 150 600 -800 Descending San Juan Center

Login

Don't have an account? Register now (free) for customized features, flight alerts, and more!